sensor_id;sensor_type;location;lat;lon;timestamp;P1;durP1;ratioP1;P2;durP2;ratioP2
19810;SDS011;10065;49.632;8.346;2022-10-22T00:02:01;9.30;;;3.53;;
19810;SDS011;10065;49.632;8.346;2022-10-22T00:04:31;8.00;;;3.30;;
19810;SDS011;10065;49.632;8.346;2022-10-22T00:07:00;7.87;;;3.27;;
19810;SDS011;10065;49.632;8.346;2022-10-22T00:09:29;7.80;;;3.60;;
19810;SDS011;10065;49.632;8.346;2022-10-22T00:11:57;12.23;;;3.27;;
19810;SDS011;10065;49.632;8.346;2022-10-22T00:14:25;10.83;;;3.77;;
19810;SDS011;10065;49.632;8.346;2022-10-22T00:16:53;7.57;;;3.70;;
19810;SDS011;10065;49.632;8.346;2022-10-22T00:19:21;7.60;;;3.60;;
19810;SDS011;10065;49.632;8.346;2022-10-22T00:21:49;6.73;;;3.30;;
19810;SDS011;10065;49.632;8.346;2022-10-22T00:24:16;7.07;;;3.90;;
19810;SDS011;10065;49.632;8.346;2022-10-22T00:26:45;9.70;;;3.30;;
19810;SDS011;10065;49.632;8.346;2022-10-22T00:29:13;11.23;;;4.00;;
19810;SDS011;10065;49.632;8.346;2022-10-22T00:31:43;8.20;;;3.40;;
19810;SDS011;10065;49.632;8.346;2022-10-22T00:34:15;10.03;;;4.40;;
19810;SDS011;10065;49.632;8.346;2022-10-22T00:36:43;7.73;;;3.30;;
19810;SDS011;10065;49.632;8.346;2022-10-22T00:39:10;8.30;;;3.93;;
19810;SDS011;10065;49.632;8.346;2022-10-22T00:41:41;8.67;;;3.70;;
19810;SDS011;10065;49.632;8.346;2022-10-22T00:47:11;7.43;;;3.90;;
19810;SDS011;10065;49.632;8.346;2022-10-22T00:49:39;12.07;;;3.80;;
19810;SDS011;10065;49.632;8.346;2022-10-22T00:52:07;11.53;;;3.70;;
19810;SDS011;10065;49.632;8.346;2022-10-22T00:54:35;9.73;;;4.00;;
19810;SDS011;10065;49.632;8.346;2022-10-22T00:57:03;14.43;;;3.83;;
19810;SDS011;10065;49.632;8.346;2022-10-22T00:59:31;9.17;;;3.87;;
19810;SDS011;10065;49.632;8.346;2022-10-22T01:01:59;6.83;;;3.40;;
19810;SDS011;10065;49.632;8.346;2022-10-22T01:04:28;15.67;;;3.57;;
19810;SDS011;10065;49.632;8.346;2022-10-22T01:06:56;9.03;;;3.80;;
19810;SDS011;10065;49.632;8.346;2022-10-22T01:09:25;7.23;;;3.17;;
19810;SDS011;10065;49.632;8.346;2022-10-22T01:12:00;4.90;;;2.37;;
19810;SDS011;10065;49.632;8.346;2022-10-22T01:14:38;7.10;;;2.80;;
19810;SDS011;10065;49.632;8.346;2022-10-22T01:17:20;6.23;;;2.10;;
19810;SDS011;10065;49.632;8.346;2022-10-22T01:20:00;6.47;;;1.80;;
19810;SDS011;10065;49.632;8.346;2022-10-22T01:22:37;6.97;;;1.70;;
19810;SDS011;10065;49.632;8.346;2022-10-22T01:25:10;5.50;;;1.77;;
19810;SDS011;10065;49.632;8.346;2022-10-22T01:27:45;4.03;;;1.10;;
19810;SDS011;10065;49.632;8.346;2022-10-22T01:30:23;7.10;;;1.23;;
19810;SDS011;10065;49.632;8.346;2022-10-22T01:32:53;2.90;;;1.00;;
19810;SDS011;10065;49.632;8.346;2022-10-22T01:35:26;12.00;;;1.43;;
19810;SDS011;10065;49.632;8.346;2022-10-22T01:38:02;5.20;;;0.70;;
19810;SDS011;10065;49.632;8.346;2022-10-22T01:40:32;2.90;;;1.00;;
19810;SDS011;10065;49.632;8.346;2022-10-22T01:43:03;2.70;;;0.70;;
19810;SDS011;10065;49.632;8.346;2022-10-22T01:45:34;3.20;;;0.90;;
19810;SDS011;10065;49.632;8.346;2022-10-22T01:48:07;3.50;;;0.80;;
19810;SDS011;10065;49.632;8.346;2022-10-22T01:50:53;3.37;;;0.60;;
19810;SDS011;10065;49.632;8.346;2022-10-22T01:53:32;4.63;;;0.70;;
19810;SDS011;10065;49.632;8.346;2022-10-22T01:56:14;2.13;;;0.70;;
19810;SDS011;10065;49.632;8.346;2022-10-22T01:58:53;1.60;;;0.47;;
19810;SDS011;10065;49.632;8.346;2022-10-22T02:01:32;2.87;;;0.80;;
19810;SDS011;10065;49.632;8.346;2022-10-22T02:04:09;3.70;;;1.10;;
19810;SDS011;10065;49.632;8.346;2022-10-22T02:06:43;3.73;;;1.00;;
19810;SDS011;10065;49.632;8.346;2022-10-22T02:09:13;3.70;;;1.00;;
19810;SDS011;10065;49.632;8.346;2022-10-22T02:11:43;4.03;;;1.00;;
19810;SDS011;10065;49.632;8.346;2022-10-22T02:14:12;3.73;;;0.80;;
19810;SDS011;10065;49.632;8.346;2022-10-22T02:16:44;1.93;;;0.70;;
19810;SDS011;10065;49.632;8.346;2022-10-22T02:19:14;1.20;;;0.80;;
19810;SDS011;10065;49.632;8.346;2022-10-22T02:21:46;2.17;;;0.93;;
19810;SDS011;10065;49.632;8.346;2022-10-22T02:24:14;4.20;;;0.70;;
19810;SDS011;10065;49.632;8.346;2022-10-22T02:26:44;3.23;;;0.60;;
19810;SDS011;10065;49.632;8.346;2022-10-22T02:29:19;4.73;;;0.80;;
19810;SDS011;10065;49.632;8.346;2022-10-22T02:31:53;4.07;;;0.87;;
19810;SDS011;10065;49.632;8.346;2022-10-22T02:34:23;3.97;;;0.90;;
19810;SDS011;10065;49.632;8.346;2022-10-22T02:36:55;2.07;;;0.70;;
19810;SDS011;10065;49.632;8.346;2022-10-22T02:39:23;5.27;;;1.30;;
19810;SDS011;10065;49.632;8.346;2022-10-22T02:41:52;5.23;;;1.10;;
19810;SDS011;10065;49.632;8.346;2022-10-22T02:44:20;3.87;;;1.10;;
19810;SDS011;10065;49.632;8.346;2022-10-22T02:46:48;5.17;;;1.30;;
19810;SDS011;10065;49.632;8.346;2022-10-22T02:49:17;5.20;;;1.27;;
19810;SDS011;10065;49.632;8.346;2022-10-22T02:51:45;1.40;;;0.77;;
19810;SDS011;10065;49.632;8.346;2022-10-22T02:54:13;1.63;;;0.63;;
19810;SDS011;10065;49.632;8.346;2022-10-22T02:56:41;2.70;;;0.77;;
19810;SDS011;10065;49.632;8.346;2022-10-22T02:59:08;2.57;;;0.70;;
19810;SDS011;10065;49.632;8.346;2022-10-22T03:01:36;3.07;;;0.60;;
19810;SDS011;10065;49.632;8.346;2022-10-22T03:04:04;1.20;;;0.70;;
19810;SDS011;10065;49.632;8.346;2022-10-22T03:06:33;4.43;;;0.87;;
19810;SDS011;10065;49.632;8.346;2022-10-22T03:09:00;3.20;;;0.90;;
19810;SDS011;10065;49.632;8.346;2022-10-22T03:11:28;2.13;;;0.70;;
19810;SDS011;10065;49.632;8.346;2022-10-22T03:13:56;1.43;;;0.70;;
19810;SDS011;10065;49.632;8.346;2022-10-22T03:16:23;3.37;;;0.60;;
19810;SDS011;10065;49.632;8.346;2022-10-22T03:18:51;3.03;;;1.03;;
19810;SDS011;10065;49.632;8.346;2022-10-22T03:21:20;2.53;;;0.70;;
19810;SDS011;10065;49.632;8.346;2022-10-22T03:23:57;1.97;;;0.70;;
19810;SDS011;10065;49.632;8.346;2022-10-22T03:26:27;1.80;;;0.80;;
19810;SDS011;10065;49.632;8.346;2022-10-22T03:28:55;4.63;;;0.80;;
19810;SDS011;10065;49.632;8.346;2022-10-22T03:31:25;3.93;;;0.70;;
19810;SDS011;10065;49.632;8.346;2022-10-22T03:33:53;3.67;;;0.97;;
19810;SDS011;10065;49.632;8.346;2022-10-22T03:36:21;6.30;;;1.30;;
19810;SDS011;10065;49.632;8.346;2022-10-22T03:38:49;3.30;;;0.90;;
19810;SDS011;10065;49.632;8.346;2022-10-22T03:41:18;4.80;;;0.97;;
19810;SDS011;10065;49.632;8.346;2022-10-22T03:43:45;4.20;;;0.80;;
19810;SDS011;10065;49.632;8.346;2022-10-22T03:46:16;4.30;;;0.80;;
19810;SDS011;10065;49.632;8.346;2022-10-22T03:48:44;2.23;;;0.90;;
19810;SDS011;10065;49.632;8.346;2022-10-22T03:51:12;2.83;;;1.00;;
19810;SDS011;10065;49.632;8.346;2022-10-22T03:53:39;4.57;;;0.90;;
19810;SDS011;10065;49.632;8.346;2022-10-22T03:56:07;2.87;;;0.80;;
19810;SDS011;10065;49.632;8.346;2022-10-22T03:58:38;2.07;;;0.80;;
19810;SDS011;10065;49.632;8.346;2022-10-22T04:01:07;5.43;;;0.90;;
19810;SDS011;10065;49.632;8.346;2022-10-22T04:03:35;1.87;;;0.80;;
19810;SDS011;10065;49.632;8.346;2022-10-22T04:06:04;2.00;;;0.97;;
19810;SDS011;10065;49.632;8.346;2022-10-22T04:08:33;3.03;;;1.00;;
19810;SDS011;10065;49.632;8.346;2022-10-22T04:11:01;2.90;;;0.90;;
19810;SDS011;10065;49.632;8.346;2022-10-22T04:13:29;3.50;;;0.80;;
19810;SDS011;10065;49.632;8.346;2022-10-22T04:16:06;2.80;;;0.80;;
19810;SDS011;10065;49.632;8.346;2022-10-22T04:18:34;3.07;;;0.73;;
19810;SDS011;10065;49.632;8.346;2022-10-22T04:21:02;6.43;;;1.10;;
19810;SDS011;10065;49.632;8.346;2022-10-22T04:23:31;2.87;;;0.87;;
19810;SDS011;10065;49.632;8.346;2022-10-22T04:25:59;3.73;;;0.90;;
19810;SDS011;10065;49.632;8.346;2022-10-22T04:28:28;3.73;;;1.20;;
19810;SDS011;10065;49.632;8.346;2022-10-22T04:30:56;5.43;;;1.20;;
19810;SDS011;10065;49.632;8.346;2022-10-22T04:33:25;4.40;;;1.40;;
19810;SDS011;10065;49.632;8.346;2022-10-22T04:35:53;4.60;;;1.57;;
19810;SDS011;10065;49.632;8.346;2022-10-22T04:38:20;4.53;;;1.27;;
19810;SDS011;10065;49.632;8.346;2022-10-22T04:40:48;5.93;;;1.80;;
19810;SDS011;10065;49.632;8.346;2022-10-22T04:43:16;3.57;;;1.30;;
19810;SDS011;10065;49.632;8.346;2022-10-22T04:45:43;2.40;;;1.20;;
19810;SDS011;10065;49.632;8.346;2022-10-22T04:48:11;5.40;;;1.53;;
19810;SDS011;10065;49.632;8.346;2022-10-22T04:50:40;3.83;;;1.10;;
19810;SDS011;10065;49.632;8.346;2022-10-22T04:53:07;3.63;;;1.40;;
19810;SDS011;10065;49.632;8.346;2022-10-22T04:55:35;4.57;;;1.50;;
19810;SDS011;10065;49.632;8.346;2022-10-22T04:58:03;2.50;;;1.40;;
19810;SDS011;10065;49.632;8.346;2022-10-22T05:00:31;3.33;;;1.27;;
19810;SDS011;10065;49.632;8.346;2022-10-22T05:02:58;4.60;;;1.10;;
19810;SDS011;10065;49.632;8.346;2022-10-22T05:05:26;8.07;;;1.37;;
19810;SDS011;10065;49.632;8.346;2022-10-22T05:07:55;3.60;;;1.60;;
19810;SDS011;10065;49.632;8.346;2022-10-22T05:10:22;5.03;;;1.17;;
19810;SDS011;10065;49.632;8.346;2022-10-22T05:12:50;4.10;;;1.27;;
19810;SDS011;10065;49.632;8.346;2022-10-22T05:15:17;3.77;;;1.10;;
19810;SDS011;10065;49.632;8.346;2022-10-22T05:17:45;5.00;;;1.10;;
19810;SDS011;10065;49.632;8.346;2022-10-22T05:20:13;4.73;;;1.43;;
19810;SDS011;10065;49.632;8.346;2022-10-22T05:22:41;4.03;;;1.33;;
19810;SDS011;10065;49.632;8.346;2022-10-22T05:25:09;6.43;;;1.40;;
19810;SDS011;10065;49.632;8.346;2022-10-22T05:27:37;3.37;;;1.10;;
19810;SDS011;10065;49.632;8.346;2022-10-22T05:30:06;5.97;;;1.87;;
19810;SDS011;10065;49.632;8.346;2022-10-22T05:32:34;3.13;;;1.50;;
19810;SDS011;10065;49.632;8.346;2022-10-22T05:35:02;2.97;;;1.63;;
19810;SDS011;10065;49.632;8.346;2022-10-22T05:37:29;8.83;;;1.67;;
19810;SDS011;10065;49.632;8.346;2022-10-22T05:39:57;3.20;;;1.40;;
19810;SDS011;10065;49.632;8.346;2022-10-22T05:42:46;3.73;;;1.60;;
19810;SDS011;10065;49.632;8.346;2022-10-22T05:45:14;5.27;;;1.70;;
19810;SDS011;10065;49.632;8.346;2022-10-22T05:47:41;3.07;;;1.27;;
19810;SDS011;10065;49.632;8.346;2022-10-22T05:50:09;6.13;;;1.83;;
19810;SDS011;10065;49.632;8.346;2022-10-22T05:52:37;3.63;;;1.40;;
19810;SDS011;10065;49.632;8.346;2022-10-22T05:55:05;7.67;;;1.80;;
19810;SDS011;10065;49.632;8.346;2022-10-22T05:57:33;7.07;;;1.40;;
19810;SDS011;10065;49.632;8.346;2022-10-22T06:00:02;3.33;;;1.40;;
19810;SDS011;10065;49.632;8.346;2022-10-22T06:02:30;4.37;;;1.50;;
19810;SDS011;10065;49.632;8.346;2022-10-22T06:04:58;10.83;;;1.80;;
19810;SDS011;10065;49.632;8.346;2022-10-22T06:07:26;6.07;;;1.90;;
19810;SDS011;10065;49.632;8.346;2022-10-22T06:09:53;4.87;;;1.70;;
19810;SDS011;10065;49.632;8.346;2022-10-22T06:12:21;4.33;;;1.47;;
19810;SDS011;10065;49.632;8.346;2022-10-22T06:14:49;5.93;;;1.47;;
19810;SDS011;10065;49.632;8.346;2022-10-22T06:17:18;6.30;;;1.60;;
19810;SDS011;10065;49.632;8.346;2022-10-22T06:19:45;3.83;;;1.47;;
19810;SDS011;10065;49.632;8.346;2022-10-22T06:22:13;3.53;;;1.13;;
19810;SDS011;10065;49.632;8.346;2022-10-22T06:24:40;4.50;;;1.20;;
19810;SDS011;10065;49.632;8.346;2022-10-22T06:27:10;2.77;;;1.20;;
19810;SDS011;10065;49.632;8.346;2022-10-22T06:29:38;5.30;;;1.40;;
19810;SDS011;10065;49.632;8.346;2022-10-22T06:32:05;7.10;;;1.60;;
19810;SDS011;10065;49.632;8.346;2022-10-22T06:34:34;5.27;;;1.60;;
19810;SDS011;10065;49.632;8.346;2022-10-22T06:37:02;4.13;;;1.80;;
19810;SDS011;10065;49.632;8.346;2022-10-22T06:39:29;2.80;;;1.33;;
19810;SDS011;10065;49.632;8.346;2022-10-22T06:41:57;7.10;;;1.40;;
19810;SDS011;10065;49.632;8.346;2022-10-22T06:44:25;3.63;;;1.50;;
19810;SDS011;10065;49.632;8.346;2022-10-22T06:46:52;4.10;;;1.10;;
19810;SDS011;10065;49.632;8.346;2022-10-22T06:49:20;3.63;;;1.23;;
19810;SDS011;10065;49.632;8.346;2022-10-22T06:51:50;4.27;;;1.50;;
19810;SDS011;10065;49.632;8.346;2022-10-22T06:54:18;5.60;;;1.37;;
19810;SDS011;10065;49.632;8.346;2022-10-22T06:56:45;4.67;;;1.40;;
19810;SDS011;10065;49.632;8.346;2022-10-22T06:59:13;7.47;;;1.77;;
19810;SDS011;10065;49.632;8.346;2022-10-22T07:01:41;7.95;;;2.17;;
19810;SDS011;10065;49.632;8.346;2022-10-22T07:04:09;6.73;;;2.23;;
19810;SDS011;10065;49.632;8.346;2022-10-22T07:06:37;5.80;;;2.13;;
19810;SDS011;10065;49.632;8.346;2022-10-22T07:09:06;5.83;;;1.80;;
19810;SDS011;10065;49.632;8.346;2022-10-22T07:11:36;5.33;;;1.70;;
19810;SDS011;10065;49.632;8.346;2022-10-22T07:14:06;5.00;;;1.60;;
19810;SDS011;10065;49.632;8.346;2022-10-22T07:16:34;3.57;;;1.60;;
19810;SDS011;10065;49.632;8.346;2022-10-22T07:19:03;5.27;;;1.83;;
19810;SDS011;10065;49.632;8.346;2022-10-22T07:21:31;3.47;;;1.40;;
19810;SDS011;10065;49.632;8.346;2022-10-22T07:23:59;5.23;;;1.93;;
19810;SDS011;10065;49.632;8.346;2022-10-22T07:26:28;4.63;;;1.50;;
19810;SDS011;10065;49.632;8.346;2022-10-22T07:28:57;8.43;;;1.77;;
19810;SDS011;10065;49.632;8.346;2022-10-22T07:31:25;6.83;;;1.87;;
19810;SDS011;10065;49.632;8.346;2022-10-22T07:33:53;5.17;;;1.73;;
19810;SDS011;10065;49.632;8.346;2022-10-22T07:36:21;7.40;;;2.00;;
19810;SDS011;10065;49.632;8.346;2022-10-22T07:38:51;5.37;;;1.73;;
19810;SDS011;10065;49.632;8.346;2022-10-22T07:41:21;5.73;;;1.80;;
19810;SDS011;10065;49.632;8.346;2022-10-22T07:43:50;4.93;;;2.00;;
19810;SDS011;10065;49.632;8.346;2022-10-22T07:46:18;7.03;;;1.90;;
19810;SDS011;10065;49.632;8.346;2022-10-22T07:48:46;5.43;;;2.13;;
19810;SDS011;10065;49.632;8.346;2022-10-22T07:51:14;6.33;;;2.43;;
19810;SDS011;10065;49.632;8.346;2022-10-22T07:53:42;5.83;;;2.30;;
19810;SDS011;10065;49.632;8.346;2022-10-22T07:56:10;6.33;;;1.90;;
19810;SDS011;10065;49.632;8.346;2022-10-22T07:58:39;6.47;;;2.30;;
19810;SDS011;10065;49.632;8.346;2022-10-22T08:01:08;4.90;;;2.37;;
19810;SDS011;10065;49.632;8.346;2022-10-22T08:03:35;5.57;;;1.60;;
19810;SDS011;10065;49.632;8.346;2022-10-22T08:06:03;4.57;;;1.77;;
19810;SDS011;10065;49.632;8.346;2022-10-22T08:08:31;4.60;;;1.67;;
19810;SDS011;10065;49.632;8.346;2022-10-22T08:11:00;3.50;;;1.40;;
19810;SDS011;10065;49.632;8.346;2022-10-22T08:13:28;1.67;;;1.00;;
19810;SDS011;10065;49.632;8.346;2022-10-22T08:15:57;3.53;;;1.27;;
19810;SDS011;10065;49.632;8.346;2022-10-22T08:18:26;4.23;;;1.40;;
19810;SDS011;10065;49.632;8.346;2022-10-22T08:20:54;3.63;;;1.40;;
19810;SDS011;10065;49.632;8.346;2022-10-22T08:23:23;3.97;;;0.77;;
19810;SDS011;10065;49.632;8.346;2022-10-22T08:25:54;4.23;;;1.17;;
19810;SDS011;10065;49.632;8.346;2022-10-22T08:28:22;2.33;;;0.73;;
19810;SDS011;10065;49.632;8.346;2022-10-22T08:30:50;3.23;;;1.20;;
19810;SDS011;10065;49.632;8.346;2022-10-22T08:33:18;6.37;;;0.93;;
19810;SDS011;10065;49.632;8.346;2022-10-22T08:35:47;8.53;;;1.20;;
19810;SDS011;10065;49.632;8.346;2022-10-22T08:38:16;6.40;;;1.10;;
19810;SDS011;10065;49.632;8.346;2022-10-22T08:40:46;1.40;;;0.50;;
19810;SDS011;10065;49.632;8.346;2022-10-22T08:43:28;3.53;;;0.80;;
19810;SDS011;10065;49.632;8.346;2022-10-22T08:46:19;2.50;;;0.90;;
19810;SDS011;10065;49.632;8.346;2022-10-22T08:48:59;2.83;;;0.80;;
19810;SDS011;10065;49.632;8.346;2022-10-22T08:51:31;2.47;;;1.27;;
19810;SDS011;10065;49.632;8.346;2022-10-22T08:54:05;2.90;;;1.35;;
19810;SDS011;10065;49.632;8.346;2022-10-22T08:56:40;9.05;;;1.05;;
19810;SDS011;10065;49.632;8.346;2022-10-22T08:59:13;4.43;;;0.85;;
19810;SDS011;10065;49.632;8.346;2022-10-22T09:01:46;1.40;;;0.63;;
19810;SDS011;10065;49.632;8.346;2022-10-22T09:04:18;2.30;;;0.60;;
19810;SDS011;10065;49.632;8.346;2022-10-22T09:06:52;1.75;;;0.70;;
19810;SDS011;10065;49.632;8.346;2022-10-22T09:09:22;1.65;;;0.40;;
19810;SDS011;10065;49.632;8.346;2022-10-22T09:11:53;2.17;;;0.60;;
19810;SDS011;10065;49.632;8.346;2022-10-22T09:14:24;2.55;;;0.95;;
19810;SDS011;10065;49.632;8.346;2022-10-22T09:17:01;2.65;;;0.50;;
19810;SDS011;10065;49.632;8.346;2022-10-22T09:19:39;4.00;;;0.63;;
19810;SDS011;10065;49.632;8.346;2022-10-22T09:22:17;2.00;;;0.80;;
19810;SDS011;10065;49.632;8.346;2022-10-22T09:24:54;2.78;;;0.63;;
19810;SDS011;10065;49.632;8.346;2022-10-22T09:27:27;0.85;;;0.43;;
19810;SDS011;10065;49.632;8.346;2022-10-22T09:29:57;5.68;;;0.90;;
19810;SDS011;10065;49.632;8.346;2022-10-22T09:32:24;3.92;;;0.70;;
19810;SDS011;10065;49.632;8.346;2022-10-22T09:34:58;2.17;;;0.50;;
19810;SDS011;10065;49.632;8.346;2022-10-22T09:37:27;0.90;;;0.50;;
19810;SDS011;10065;49.632;8.346;2022-10-22T09:39:56;1.25;;;0.43;;
19810;SDS011;10065;49.632;8.346;2022-10-22T09:42:25;1.75;;;0.63;;
19810;SDS011;10065;49.632;8.346;2022-10-22T09:44:53;5.28;;;0.80;;
19810;SDS011;10065;49.632;8.346;2022-10-22T09:47:28;2.70;;;0.68;;
19810;SDS011;10065;49.632;8.346;2022-10-22T09:50:19;2.05;;;0.70;;
19810;SDS011;10065;49.632;8.346;2022-10-22T09:52:59;5.28;;;0.80;;
19810;SDS011;10065;49.632;8.346;2022-10-22T09:55:30;1.15;;;0.50;;
19810;SDS011;10065;49.632;8.346;2022-10-22T09:57:59;1.42;;;0.50;;
19810;SDS011;10065;49.632;8.346;2022-10-22T10:00:28;1.85;;;0.88;;
19810;SDS011;10065;49.632;8.346;2022-10-22T10:02:56;4.05;;;0.73;;
19810;SDS011;10065;49.632;8.346;2022-10-22T10:05:26;6.05;;;1.02;;
19810;SDS011;10065;49.632;8.346;2022-10-22T10:07:56;2.75;;;0.70;;
19810;SDS011;10065;49.632;8.346;2022-10-22T10:10:28;3.78;;;1.00;;
19810;SDS011;10065;49.632;8.346;2022-10-22T10:13:02;1.50;;;0.57;;
19810;SDS011;10065;49.632;8.346;2022-10-22T10:15:42;1.70;;;0.65;;
19810;SDS011;10065;49.632;8.346;2022-10-22T10:18:16;2.55;;;1.00;;
19810;SDS011;10065;49.632;8.346;2022-10-22T10:20:52;3.63;;;0.80;;
19810;SDS011;10065;49.632;8.346;2022-10-22T10:23:29;3.15;;;0.77;;
19810;SDS011;10065;49.632;8.346;2022-10-22T10:26:03;2.77;;;0.87;;
19810;SDS011;10065;49.632;8.346;2022-10-22T10:28:36;2.43;;;0.60;;
19810;SDS011;10065;49.632;8.346;2022-10-22T10:31:15;6.65;;;1.00;;
19810;SDS011;10065;49.632;8.346;2022-10-22T10:33:49;5.32;;;1.58;;
19810;SDS011;10065;49.632;8.346;2022-10-22T10:36:27;20.98;;;2.08;;
19810;SDS011;10065;49.632;8.346;2022-10-22T10:39:05;2.38;;;0.70;;
19810;SDS011;10065;49.632;8.346;2022-10-22T10:41:38;7.60;;;0.95;;
19810;SDS011;10065;49.632;8.346;2022-10-22T10:47:12;5.07;;;1.15;;
19810;SDS011;10065;49.632;8.346;2022-10-22T10:49:53;2.67;;;0.80;;
19810;SDS011;10065;49.632;8.346;2022-10-22T10:52:31;4.55;;;0.77;;
19810;SDS011;10065;49.632;8.346;2022-10-22T10:55:10;2.60;;;0.80;;
19810;SDS011;10065;49.632;8.346;2022-10-22T10:57:45;4.38;;;0.68;;
19810;SDS011;10065;49.632;8.346;2022-10-22T11:00:22;2.55;;;0.70;;
19810;SDS011;10065;49.632;8.346;2022-10-22T11:03:00;2.97;;;0.70;;
19810;SDS011;10065;49.632;8.346;2022-10-22T11:05:46;4.15;;;0.60;;
19810;SDS011;10065;49.632;8.346;2022-10-22T11:08:19;3.33;;;0.70;;
19810;SDS011;10065;49.632;8.346;2022-10-22T11:10:53;2.53;;;0.60;;
19810;SDS011;10065;49.632;8.346;2022-10-22T11:13:26;4.95;;;1.00;;
19810;SDS011;10065;49.632;8.346;2022-10-22T11:15:59;2.63;;;0.70;;
19810;SDS011;10065;49.632;8.346;2022-10-22T11:18:32;2.13;;;0.70;;
19810;SDS011;10065;49.632;8.346;2022-10-22T11:21:07;4.82;;;0.90;;
19810;SDS011;10065;49.632;8.346;2022-10-22T11:23:41;4.45;;;0.80;;
19810;SDS011;10065;49.632;8.346;2022-10-22T11:26:14;6.22;;;0.88;;
19810;SDS011;10065;49.632;8.346;2022-10-22T11:28:53;4.05;;;0.90;;
19810;SDS011;10065;49.632;8.346;2022-10-22T11:31:26;6.18;;;1.00;;
19810;SDS011;10065;49.632;8.346;2022-10-22T11:33:57;4.32;;;1.08;;
19810;SDS011;10065;49.632;8.346;2022-10-22T11:36:50;3.15;;;1.10;;
19810;SDS011;10065;49.632;8.346;2022-10-22T11:39:27;3.80;;;0.80;;
19810;SDS011;10065;49.632;8.346;2022-10-22T11:41:59;3.15;;;0.85;;
19810;SDS011;10065;49.632;8.346;2022-10-22T11:44:30;2.70;;;0.88;;
19810;SDS011;10065;49.632;8.346;2022-10-22T11:47:15;3.13;;;0.88;;
19810;SDS011;10065;49.632;8.346;2022-10-22T11:49:54;2.25;;;0.70;;
19810;SDS011;10065;49.632;8.346;2022-10-22T11:52:25;4.55;;;0.98;;
19810;SDS011;10065;49.632;8.346;2022-10-22T11:55:26;2.43;;;0.80;;
19810;SDS011;10065;49.632;8.346;2022-10-22T11:57:59;3.60;;;0.77;;
19810;SDS011;10065;49.632;8.346;2022-10-22T12:00:32;2.00;;;0.80;;
19810;SDS011;10065;49.632;8.346;2022-10-22T12:03:02;2.97;;;0.70;;
19810;SDS011;10065;49.632;8.346;2022-10-22T12:05:42;3.83;;;1.00;;
19810;SDS011;10065;49.632;8.346;2022-10-22T12:08:15;1.70;;;0.63;;
19810;SDS011;10065;49.632;8.346;2022-10-22T12:10:53;6.40;;;0.87;;
19810;SDS011;10065;49.632;8.346;2022-10-22T12:13:26;5.17;;;0.87;;
19810;SDS011;10065;49.632;8.346;2022-10-22T12:15:57;4.43;;;1.10;;
19810;SDS011;10065;49.632;8.346;2022-10-22T12:18:30;1.77;;;0.70;;
19810;SDS011;10065;49.632;8.346;2022-10-22T12:21:05;2.97;;;0.80;;
19810;SDS011;10065;49.632;8.346;2022-10-22T12:23:35;4.00;;;0.97;;
19810;SDS011;10065;49.632;8.346;2022-10-22T12:26:03;4.47;;;0.97;;
19810;SDS011;10065;49.632;8.346;2022-10-22T12:28:37;1.60;;;0.80;;
19810;SDS011;10065;49.632;8.346;2022-10-22T12:31:13;3.70;;;1.30;;
19810;SDS011;10065;49.632;8.346;2022-10-22T12:33:42;4.90;;;0.90;;
19810;SDS011;10065;49.632;8.346;2022-10-22T12:36:14;3.50;;;0.90;;
19810;SDS011;10065;49.632;8.346;2022-10-22T12:38:44;4.70;;;0.97;;
19810;SDS011;10065;49.632;8.346;2022-10-22T12:41:13;4.00;;;1.00;;
19810;SDS011;10065;49.632;8.346;2022-10-22T12:43:42;5.03;;;1.20;;
19810;SDS011;10065;49.632;8.346;2022-10-22T12:46:10;4.32;;;1.38;;
19810;SDS011;10065;49.632;8.346;2022-10-22T12:48:40;3.03;;;1.02;;
19810;SDS011;10065;49.632;8.346;2022-10-22T12:51:13;4.50;;;0.85;;
19810;SDS011;10065;49.632;8.346;2022-10-22T12:53:45;6.15;;;1.13;;
19810;SDS011;10065;49.632;8.346;2022-10-22T12:56:16;2.90;;;1.00;;
19810;SDS011;10065;49.632;8.346;2022-10-22T12:58:50;4.40;;;0.80;;
19810;SDS011;10065;49.632;8.346;2022-10-22T13:01:21;5.17;;;1.03;;
19810;SDS011;10065;49.632;8.346;2022-10-22T13:04:02;4.93;;;1.50;;
19810;SDS011;10065;49.632;8.346;2022-10-22T13:06:33;3.83;;;1.17;;
19810;SDS011;10065;49.632;8.346;2022-10-22T13:09:04;6.70;;;1.13;;
19810;SDS011;10065;49.632;8.346;2022-10-22T13:11:37;4.13;;;1.20;;
19810;SDS011;10065;49.632;8.346;2022-10-22T13:14:17;5.47;;;1.37;;
19810;SDS011;10065;49.632;8.346;2022-10-22T13:17:07;4.77;;;0.90;;
19810;SDS011;10065;49.632;8.346;2022-10-22T13:19:41;3.73;;;1.00;;
19810;SDS011;10065;49.632;8.346;2022-10-22T13:22:30;5.03;;;1.00;;
19810;SDS011;10065;49.632;8.346;2022-10-22T13:25:03;6.53;;;0.90;;
19810;SDS011;10065;49.632;8.346;2022-10-22T13:27:46;2.87;;;1.07;;
19810;SDS011;10065;49.632;8.346;2022-10-22T13:30:21;7.60;;;1.40;;
19810;SDS011;10065;49.632;8.346;2022-10-22T13:32:51;3.53;;;0.90;;
19810;SDS011;10065;49.632;8.346;2022-10-22T13:35:22;6.40;;;0.90;;
19810;SDS011;10065;49.632;8.346;2022-10-22T13:37:52;5.57;;;1.30;;
19810;SDS011;10065;49.632;8.346;2022-10-22T13:40:20;4.57;;;0.90;;
19810;SDS011;10065;49.632;8.346;2022-10-22T13:42:48;4.67;;;1.27;;
19810;SDS011;10065;49.632;8.346;2022-10-22T13:45:16;5.03;;;1.27;;
19810;SDS011;10065;49.632;8.346;2022-10-22T13:47:47;5.70;;;1.67;;
19810;SDS011;10065;49.632;8.346;2022-10-22T13:50:17;4.77;;;1.20;;
19810;SDS011;10065;49.632;8.346;2022-10-22T13:52:48;2.97;;;1.17;;
19810;SDS011;10065;49.632;8.346;2022-10-22T13:55:19;6.23;;;1.67;;
19810;SDS011;10065;49.632;8.346;2022-10-22T13:57:50;2.97;;;1.40;;
19810;SDS011;10065;49.632;8.346;2022-10-22T14:00:19;8.10;;;1.97;;
19810;SDS011;10065;49.632;8.346;2022-10-22T14:02:51;8.40;;;1.30;;
19810;SDS011;10065;49.632;8.346;2022-10-22T14:05:20;5.03;;;1.23;;
19810;SDS011;10065;49.632;8.346;2022-10-22T14:07:48;4.07;;;1.80;;
19810;SDS011;10065;49.632;8.346;2022-10-22T14:10:17;5.10;;;2.10;;
19810;SDS011;10065;49.632;8.346;2022-10-22T14:12:46;6.10;;;2.37;;
19810;SDS011;10065;49.632;8.346;2022-10-22T14:15:19;8.73;;;3.40;;
19810;SDS011;10065;49.632;8.346;2022-10-22T14:17:51;7.90;;;2.77;;
19810;SDS011;10065;49.632;8.346;2022-10-22T14:20:21;8.87;;;1.90;;
19810;SDS011;10065;49.632;8.346;2022-10-22T14:22:51;8.37;;;1.80;;
19810;SDS011;10065;49.632;8.346;2022-10-22T14:25:20;9.60;;;1.70;;
19810;SDS011;10065;49.632;8.346;2022-10-22T14:27:49;7.07;;;1.90;;
19810;SDS011;10065;49.632;8.346;2022-10-22T14:30:18;9.70;;;2.40;;
19810;SDS011;10065;49.632;8.346;2022-10-22T14:32:47;8.27;;;2.73;;
19810;SDS011;10065;49.632;8.346;2022-10-22T14:35:17;6.30;;;2.67;;
19810;SDS011;10065;49.632;8.346;2022-10-22T14:37:46;6.47;;;2.60;;
19810;SDS011;10065;49.632;8.346;2022-10-22T14:40:15;4.67;;;1.90;;
19810;SDS011;10065;49.632;8.346;2022-10-22T14:42:46;4.43;;;2.20;;
19810;SDS011;10065;49.632;8.346;2022-10-22T14:45:16;4.90;;;1.80;;
19810;SDS011;10065;49.632;8.346;2022-10-22T14:47:46;3.33;;;1.30;;
19810;SDS011;10065;49.632;8.346;2022-10-22T14:50:14;5.27;;;1.37;;
19810;SDS011;10065;49.632;8.346;2022-10-22T14:52:46;5.60;;;1.70;;
19810;SDS011;10065;49.632;8.346;2022-10-22T14:55:28;6.00;;;1.67;;
19810;SDS011;10065;49.632;8.346;2022-10-22T14:57:56;7.07;;;1.93;;
19810;SDS011;10065;49.632;8.346;2022-10-22T15:00:24;6.57;;;2.33;;
19810;SDS011;10065;49.632;8.346;2022-10-22T15:02:51;9.70;;;2.40;;
19810;SDS011;10065;49.632;8.346;2022-10-22T15:05:21;6.77;;;2.80;;
19810;SDS011;10065;49.632;8.346;2022-10-22T15:07:50;9.73;;;2.10;;
19810;SDS011;10065;49.632;8.346;2022-10-22T15:10:17;7.07;;;2.63;;
19810;SDS011;10065;49.632;8.346;2022-10-22T15:12:45;6.47;;;2.40;;
19810;SDS011;10065;49.632;8.346;2022-10-22T15:15:15;9.20;;;3.50;;
19810;SDS011;10065;49.632;8.346;2022-10-22T15:17:48;11.93;;;4.30;;